Time;durP1;ratioP1;P1;durP2;ratioP2;P2;SDS_P1;SDS_P2;PMS_P1;PMS_P2;Temp;Humidity;BMP_temperature;BMP_pressure;BME280_temperature;BME280_humidity;BME280_pressure;Samples;Min_cycle;Max_cycle;Signal;HPM_P1;HPM_P2
2021/07/14 00:01:49;;;;;;;19.18;13.05;;;;;;;23.02;69.14;99472.45;125693;1093;22772;-60
2021/07/14 00:04:21;;;;;;;20.98;13.40;;;;;;;22.96;69.19;99486.18;125832;1092;22794;-62
2021/07/14 00:06:53;;;;;;;21.58;11.98;;;;;;;22.93;69.40;99489.42;125704;1093;22793;-62
2021/07/14 00:09:25;;;;;;;20.75;13.15;;;;;;;22.89;69.50;99501.23;125687;1093;26678;-61
2021/07/14 00:12:00;;;;;;;20.43;12.73;;;;;;;22.86;69.33;99496.72;125835;1093;28281;-61
2021/07/14 00:14:57;;;;;;;20.33;12.80;;;;;;;22.85;69.57;99497.28;126013;1093;22917;-61
2021/07/14 00:23:12;;;;;;;18.75;12.93;;;;;;;22.72;70.07;99492.64;125462;1096;22807;-62
2021/07/14 00:25:44;;;;;;;19.10;12.43;;;;;;;22.70;69.73;99501.00;125575;1096;22817;-61
2021/07/14 00:28:16;;;;;;;20.10;13.65;;;;;;;22.65;70.21;99493.47;125449;1096;22780;-63
2021/07/14 00:30:52;;;;;;;20.95;13.68;;;;;;;22.59;70.29;99490.10;125421;1096;29017;-61
2021/07/14 00:33:26;;;;;;;20.15;12.98;;;;;;;22.54;70.50;99496.73;125677;1096;22803;-61
2021/07/14 00:36:00;;;;;;;23.10;13.43;;;;;;;22.47;70.39;99495.45;125994;1096;23063;-61
2021/07/14 00:38:36;;;;;;;20.93;13.60;;;;;;;22.41;70.56;99492.09;125513;1095;22803;-61
2021/07/14 00:41:10;;;;;;;22.15;13.38;;;;;;;22.37;70.85;99486.05;125572;1096;22777;-61
2021/07/14 00:43:42;;;;;;;21.23;12.20;;;;;;;22.31;70.79;99479.84;125572;1096;22787;-61
2021/07/14 00:46:24;;;;;;;20.03;12.75;;;;;;;22.28;70.58;99477.41;125708;1096;26203;-62
2021/07/14 00:48:59;;;;;;;21.80;12.65;;;;;;;22.24;71.02;99483.47;125718;1095;22777;-61
2021/07/14 00:51:32;;;;;;;26.20;12.15;;;;;;;22.21;71.05;99483.88;125550;1095;24309;-61
2021/07/14 00:54:07;;;;;;;19.00;12.03;;;;;;;22.18;71.01;99485.79;125691;1095;23344;-61
2021/07/14 00:56:40;;;;;;;20.73;13.40;;;;;;;22.15;71.03;99480.52;125582;1096;22804;-61
2021/07/14 00:59:11;;;;;;;20.35;12.78;;;;;;;22.14;71.23;99476.17;125491;1093;25771;-61
2021/07/14 01:01:44;;;;;;;21.85;13.83;;;;;;;22.13;71.25;99483.17;125596;1092;22800;-62
2021/07/14 01:04:23;;;;;;;20.60;13.93;;;;;;;22.13;71.40;99492.47;125715;1092;26229;-62
2021/07/14 01:06:59;;;;;;;21.65;13.85;;;;;;;22.09;71.50;99502.72;125637;1093;22788;-60
2021/07/14 01:09:37;;;;;;;22.68;13.43;;;;;;;22.09;71.80;99505.56;125735;1093;27198;-60
2021/07/14 01:12:14;;;;;;;23.98;13.63;;;;;;;22.09;71.74;99502.72;125755;1092;22797;-62
2021/07/14 01:14:58;;;;;;;21.65;14.18;;;;;;;22.09;71.74;99508.41;125818;1092;22797;-60
2021/07/14 01:17:30;;;;;;;23.90;14.65;;;;;;;22.04;71.95;99504.45;125728;1093;22844;-62
2021/07/14 01:20:18;;;;;;;23.40;14.35;;;;;;;22.03;71.93;99502.95;125686;1093;24420;-60
2021/07/14 01:23:00;;;;;;;25.53;15.17;;;;;;;22.04;72.20;99500.84;125767;1093;22767;-61
2021/07/14 01:25:48;;;;;;;22.83;14.73;;;;;;;22.02;72.08;99501.42;125649;1093;22797;-62
2021/07/14 01:28:21;;;;;;;22.78;14.08;;;;;;;21.99;72.26;99501.83;125783;1093;22926;-62
2021/07/14 01:30:55;;;;;;;21.23;14.33;;;;;;;21.93;72.39;99509.82;125766;1093;25858;-61
2021/07/14 01:33:31;;;;;;;23.47;14.93;;;;;;;21.88;72.38;99499.41;125763;1093;26271;-60
2021/07/14 01:36:08;;;;;;;21.48;14.85;;;;;;;21.84;72.67;99507.58;125892;1093;23289;-61
2021/07/14 01:38:43;;;;;;;23.28;14.68;;;;;;;21.81;72.83;99506.61;125868;1093;22864;-61
2021/07/14 01:41:18;;;;;;;23.77;14.87;;;;;;;21.82;72.50;99499.64;125589;1092;24171;-60
2021/07/14 01:43:55;;;;;;;23.18;15.85;;;;;;;21.82;72.97;99493.19;125682;1092;22816;-61
2021/07/14 01:46:29;;;;;;;23.38;16.30;;;;;;;21.80;72.93;99493.75;125570;1092;22794;-61
2021/07/14 01:49:06;;;;;;;22.68;15.15;;;;;;;21.80;72.97;99484.46;125671;1092;22770;-60
2021/07/14 01:51:44;;;;;;;29.35;17.00;;;;;;;21.79;72.93;99489.38;125573;1092;27276;-60
2021/07/14 01:54:20;;;;;;;24.58;14.93;;;;;;;21.79;73.32;99491.48;125854;1093;22816;-62
2021/07/14 01:56:52;;;;;;;27.60;17.18;;;;;;;21.77;73.51;99496.98;125777;1093;22767;-59
2021/07/14 01:59:25;;;;;;;26.78;17.03;;;;;;;21.75;73.53;99489.78;125690;1092;22767;-59
2021/07/14 02:01:59;;;;;;;28.33;18.33;;;;;;;21.75;73.73;99484.10;125679;1092;22767;-61
2021/07/14 02:04:32;;;;;;;28.75;18.98;;;;;;;21.73;73.78;99483.16;125601;1093;27632;-60
2021/07/14 02:07:08;;;;;;;28.08;16.28;;;;;;;21.71;73.85;99482.98;125664;1092;22767;-61
2021/07/14 02:09:42;;;;;;;28.15;19.35;;;;;;;21.69;74.17;99503.45;125862;1093;25829;-61
2021/07/14 02:12:15;;;;;;;26.65;17.03;;;;;;;21.65;74.12;99511.61;125675;1093;22785;-61
2021/07/14 02:14:52;;;;;;;24.83;17.08;;;;;;;21.63;74.04;99522.02;125694;1093;22767;-60
2021/07/14 02:17:27;;;;;;;26.15;17.98;;;;;;;21.62;74.26;99521.27;125687;1092;22794;-60
2021/07/14 02:20:04;;;;;;;25.50;17.93;;;;;;;21.61;74.43;99510.48;125730;1092;25804;-61
2021/07/14 02:22:36;;;;;;;28.33;17.70;;;;;;;21.59;74.47;99511.06;125684;1092;22771;-61
2021/07/14 02:25:12;;;;;;;24.58;18.05;;;;;;;21.58;74.49;99503.86;125601;1092;22794;-59
2021/07/14 02:27:46;;;;;;;26.90;18.03;;;;;;;21.54;74.47;99509.17;125804;1091;26242;-62
2021/07/14 02:30:23;;;;;;;26.68;17.55;;;;;;;21.50;74.42;99496.69;125726;1093;22832;-61
2021/07/14 02:32:57;;;;;;;26.95;17.05;;;;;;;21.46;74.84;99505.60;125823;1093;22787;-60
2021/07/14 02:35:30;;;;;;;29.50;18.18;;;;;;;21.32;74.90;99504.32;125936;1093;27525;-62
2021/07/14 02:38:08;;;;;;;25.70;17.38;;;;;;;21.22;75.04;99499.80;125564;1093;22805;-61
2021/07/14 02:40:47;;;;;;;25.85;17.08;;;;;;;21.16;75.16;99494.33;125671;1092;22797;-61
2021/07/14 02:43:25;;;;;;;25.47;16.43;;;;;;;21.12;75.15;99499.64;125705;1093;22767;-61
2021/07/14 02:45:59;;;;;;;25.73;17.00;;;;;;;21.07;75.31;99494.14;125611;1093;22924;-60
2021/07/14 02:48:35;;;;;;;23.75;16.35;;;;;;;21.03;75.33;99494.53;125699;1093;22775;-61
2021/07/14 02:51:08;;;;;;;26.28;16.60;;;;;;;21.02;75.21;99498.70;125749;1093;22794;-61
2021/07/14 02:53:48;;;;;;;28.78;17.50;;;;;;;21.02;75.52;99503.59;125800;1093;22794;-61
2021/07/14 02:56:22;;;;;;;27.60;17.00;;;;;;;21.00;75.39;99504.17;125630;1093;25867;-62
2021/07/14 02:58:58;;;;;;;23.40;15.43;;;;;;;20.98;75.58;99504.72;126449;1092;23005;-63
2021/07/14 03:01:31;;;;;;;27.03;16.25;;;;;;;20.95;75.46;99507.94;125933;1093;22776;-62
2021/07/14 03:04:04;;;;;;;26.10;17.00;;;;;;;20.93;75.53;99516.27;125820;1093;22778;-61
2021/07/14 03:06:38;;;;;;;25.75;15.88;;;;;;;20.91;75.47;99524.59;125853;1096;22788;-61
2021/07/14 03:09:11;;;;;;;26.90;16.37;;;;;;;20.90;75.66;99514.55;125876;1097;22857;-61
2021/07/14 03:11:45;;;;;;;25.90;16.15;;;;;;;20.90;75.71;99509.64;125802;1096;22780;-61
2021/07/14 03:14:18;;;;;;;26.68;15.75;;;;;;;20.90;76.10;99503.20;125788;1093;24498;-61
2021/07/14 03:16:51;;;;;;;25.43;16.67;;;;;;;20.89;76.02;99504.55;125799;1096;22778;-61
2021/07/14 03:19:24;;;;;;;24.07;15.70;;;;;;;20.88;75.94;99505.86;125841;1096;22802;-61
2021/07/14 03:21:56;;;;;;;25.85;16.23;;;;;;;20.89;75.80;99513.06;125812;1095;22934;-61
2021/07/14 03:24:29;;;;;;;23.63;15.43;;;;;;;20.86;75.97;99503.59;125981;1096;27798;-61
2021/07/14 03:27:01;;;;;;;25.77;17.23;;;;;;;20.86;76.16;99519.85;125805;1097;22813;-61
2021/07/14 03:29:45;;;;;;;24.35;15.68;;;;;;;20.87;75.89;99521.38;125887;1095;26293;-62
2021/07/14 03:32:19;;;;;;;29.15;17.45;;;;;;;20.89;76.20;99527.24;125721;1096;22860;-61
2021/07/14 03:34:52;;;;;;;27.58;16.90;;;;;;;20.91;76.38;99519.69;125684;1094;22777;-61
2021/07/14 03:37:25;;;;;;;28.30;18.10;;;;;;;20.94;76.53;99518.53;125752;1094;28856;-63
2021/07/14 03:39:57;;;;;;;28.75;19.15;;;;;;;20.96;76.38;99515.12;125772;1097;22752;-62
2021/07/14 03:42:30;;;;;;;32.05;20.18;;;;;;;20.98;76.67;99506.81;125681;1096;25947;-63
2021/07/14 03:45:03;;;;;;;29.70;18.98;;;;;;;21.01;77.01;99519.09;125702;1097;22926;-61
2021/07/14 03:47:35;;;;;;;32.77;23.40;;;;;;;21.02;76.88;99509.27;125765;1096;22903;-61
2021/07/14 03:50:08;;;;;;;32.45;22.65;;;;;;;21.04;77.24;99510.25;125911;1097;22873;-61
2021/07/14 03:52:42;;;;;;;28.75;20.68;;;;;;;21.08;77.35;99502.11;125820;1097;24461;-61
2021/07/14 03:55:17;;;;;;;32.43;20.78;;;;;;;21.11;77.50;99500.95;125718;1096;22770;-61
2021/07/14 03:57:49;;;;;;;34.13;21.73;;;;;;;21.11;77.68;99500.95;125790;1096;22780;-61
2021/07/14 04:00:20;;;;;;;34.63;20.25;;;;;;;21.12;77.73;99491.13;125697;1095;22868;-61
2021/07/14 04:02:52;;;;;;;28.10;20.10;;;;;;;21.15;77.79;99501.32;125815;1097;25938;-63
2021/07/14 04:05:25;;;;;;;30.20;19.88;;;;;;;21.19;77.42;99490.33;125776;1097;22800;-61
2021/07/14 04:07:59;;;;;;;27.53;19.18;;;;;;;21.24;77.81;99502.82;125740;1096;22807;-61
2021/07/14 04:10:30;;;;;;;34.05;20.60;;;;;;;21.28;77.77;99503.95;125766;1095;25884;-62
2021/07/14 04:13:02;;;;;;;27.50;19.95;;;;;;;21.33;77.99;99508.66;125661;1096;24483;-61
2021/07/14 04:15:35;;;;;;;31.73;20.65;;;;;;;21.38;77.93;99506.95;125791;1097;22944;-62
2021/07/14 04:18:08;;;;;;;30.43;21.20;;;;;;;21.45;78.09;99497.66;125635;1096;22865;-62
2021/07/14 04:20:41;;;;;;;33.95;22.28;;;;;;;21.49;78.38;99495.95;125687;1096;22799;-62
2021/07/14 04:23:13;;;;;;;33.83;21.80;;;;;;;21.55;78.57;99493.66;125687;1096;22807;-62
2021/07/14 04:25:44;;;;;;;31.05;21.80;;;;;;;21.61;78.40;99484.92;125579;1095;24167;-63
2021/07/14 04:28:16;;;;;;;32.10;21.77;;;;;;;21.66;78.74;99487.53;125608;1096;22803;-61
2021/07/14 04:30:48;;;;;;;32.27;21.10;;;;;;;21.71;78.31;99485.81;125673;1096;26296;-63
2021/07/14 04:33:20;;;;;;;35.40;20.85;;;;;;;21.80;78.48;99490.14;125963;1095;23380;-63
2021/07/14 04:35:52;;;;;;;30.75;22.43;;;;;;;21.86;78.71;99490.70;125712;1096;26249;-62
2021/07/14 04:38:24;;;;;;;30.93;21.83;;;;;;;21.90;78.53;99499.59;125619;1096;24473;-62
2021/07/14 04:40:55;;;;;;;32.03;22.43;;;;;;;21.95;78.98;99501.48;125660;1097;26633;-63
2021/07/14 04:43:27;;;;;;;30.53;21.25;;;;;;;21.99;79.16;99496.15;125691;1096;22783;-63
2021/07/14 04:45:59;;;;;;;34.93;22.70;;;;;;;22.02;79.00;99504.27;125652;1096;22938;-63
2021/07/14 04:48:31;;;;;;;36.40;23.55;;;;;;;22.06;79.08;99496.09;125607;1096;22784;-63
2021/07/14 04:51:03;;;;;;;32.90;22.10;;;;;;;22.12;79.08;99507.27;125700;1097;25450;-63
2021/07/14 04:53:35;;;;;;;32.65;21.20;;;;;;;22.17;79.20;99509.12;125604;1096;22771;-62
2021/07/14 04:56:07;;;;;;;32.35;22.20;;;;;;;22.22;79.06;99499.63;125621;1095;22783;-64
2021/07/14 04:58:41;;;;;;;30.55;21.63;;;;;;;22.28;79.00;99500.92;125822;1093;28686;-63
2021/07/14 05:01:14;;;;;;;30.73;22.60;;;;;;;22.34;79.03;99497.84;125622;1093;25855;-64
2021/07/14 05:03:47;;;;;;;31.80;21.83;;;;;;;22.38;78.85;99498.19;125803;1094;26774;-72
2021/07/14 05:06:21;;;;;;;31.60;20.95;;;;;;;22.42;79.02;99502.14;125722;1096;22776;-62
2021/07/14 05:08:54;;;;;;;29.58;21.43;;;;;;;22.47;79.09;99495.45;125707;1095;22782;-63
2021/07/14 05:11:27;;;;;;;30.83;19.98;;;;;;;22.52;78.96;99505.09;125732;1096;22801;-62
2021/07/14 05:13:59;;;;;;;32.50;21.05;;;;;;;22.58;78.95;99517.03;125624;1096;22780;-63
2021/07/14 05:16:30;;;;;;;33.53;22.53;;;;;;;22.64;79.06;99511.86;126221;1096;22788;-63
2021/07/14 05:19:03;;;;;;;29.70;19.80;;;;;;;22.69;79.09;99501.59;125642;1093;27217;-62
2021/07/14 05:21:35;;;;;;;29.85;20.23;;;;;;;22.77;78.98;99507.97;125672;1096;22811;-63
2021/07/14 05:24:08;;;;;;;29.75;20.38;;;;;;;22.84;79.24;99504.32;125777;1095;22870;-62
2021/07/14 05:26:42;;;;;;;29.70;19.63;;;;;;;22.90;79.13;99508.44;125810;1096;27652;-63
2021/07/14 05:29:14;;;;;;;29.97;19.40;;;;;;;22.96;79.06;99528.88;126004;1095;24480;-63
2021/07/14 05:31:46;;;;;;;28.88;19.88;;;;;;;23.00;78.44;99525.61;125704;1095;27310;-63
2021/07/14 05:34:18;;;;;;;29.35;19.55;;;;;;;23.06;78.74;99523.28;125693;1096;22786;-63
2021/07/14 05:36:49;;;;;;;30.23;20.43;;;;;;;23.09;78.56;99522.86;125640;1096;22777;-62
2021/07/14 05:39:21;;;;;;;31.90;21.30;;;;;;;23.13;78.77;99528.89;125819;1097;22940;-63
2021/07/14 05:41:53;;;;;;;30.48;20.48;;;;;;;23.16;78.71;99527.73;125726;1097;24197;-63
2021/07/14 05:44:25;;;;;;;30.70;19.78;;;;;;;23.21;78.76;99529.60;125675;1096;22795;-63
2021/07/14 05:46:58;;;;;;;32.03;20.15;;;;;;;23.25;78.70;99534.88;125696;1096;22777;-64
2021/07/14 05:49:29;;;;;;;29.28;19.65;;;;;;;23.28;78.44;99537.30;125634;1096;23482;-63
2021/07/14 05:52:01;;;;;;;31.98;20.88;;;;;;;23.33;78.36;99549.83;125625;1096;22797;-63
2021/07/14 05:54:33;;;;;;;34.45;20.98;;;;;;;23.37;78.53;99555.09;125664;1094;26248;-63
2021/07/14 05:57:05;;;;;;;31.05;19.33;;;;;;;23.39;78.14;99558.88;125719;1097;22855;-63
2021/07/14 05:59:37;;;;;;;30.00;18.67;;;;;;;23.41;78.31;99572.52;125815;1096;22774;-63
2021/07/14 06:02:14;;;;;;;29.10;18.48;;;;;;;23.48;78.14;99577.41;125663;1093;26280;-63
2021/07/14 06:04:46;;;;;;;29.15;19.15;;;;;;;23.55;78.23;99571.62;125661;1097;22774;-62
2021/07/14 06:07:17;;;;;;;27.65;18.78;;;;;;;23.61;77.89;99574.23;125868;1096;27183;-63
2021/07/14 06:09:49;;;;;;;29.25;18.20;;;;;;;23.67;77.98;99575.48;125677;1096;22864;-63
2021/07/14 06:12:21;;;;;;;29.08;17.60;;;;;;;23.73;77.64;99573.13;125705;1096;22797;-63
2021/07/14 06:14:53;;;;;;;29.30;17.55;;;;;;;23.82;77.61;99580.25;125610;1095;22832;-63
2021/07/14 06:17:25;;;;;;;28.17;15.77;;;;;;;23.93;77.46;99583.37;125768;1097;22795;-66
2021/07/14 06:19:57;;;;;;;25.38;16.75;;;;;;;24.07;77.05;99592.34;125865;1096;22867;-63
2021/07/14 06:22:28;;;;;;;28.88;15.35;;;;;;;24.21;77.00;99595.61;125666;1094;22931;-62
2021/07/14 06:25:00;;;;;;;25.45;13.68;;;;;;;24.33;76.14;99608.77;125696;1097;22786;-63
2021/07/14 06:27:33;;;;;;;28.70;13.53;;;;;;;24.44;75.78;99613.92;125708;1096;25988;-63
2021/07/14 06:30:09;;;;;;;23.35;10.95;;;;;;;24.51;74.43;99601.67;125822;1097;22854;-63
2021/07/14 06:32:41;;;;;;;20.70;11.30;;;;;;;24.55;74.12;99618.35;125714;1095;22899;-63
2021/07/14 06:35:14;;;;;;;25.35;10.38;;;;;;;24.55;73.54;99627.67;125756;1096;24196;-63
2021/07/14 06:37:46;;;;;;;23.10;10.78;;;;;;;24.54;73.36;99622.56;125687;1096;22780;-63
2021/07/14 06:40:18;;;;;;;20.10;9.13;;;;;;;24.52;72.70;99616.70;125716;1097;22754;-63
2021/07/14 06:42:50;;;;;;;22.55;9.10;;;;;;;24.49;71.71;99632.13;125665;1097;26518;-63
2021/07/14 06:45:26;;;;;;;20.52;8.58;;;;;;;24.43;71.89;99638.11;125610;1096;25465;-63
2021/07/14 06:47:59;;;;;;;18.95;7.95;;;;;;;24.38;72.17;99658.33;125652;1097;27207;-63
2021/07/14 06:50:30;;;;;;;22.60;7.98;;;;;;;24.33;72.01;99685.03;125926;1095;23324;-62
2021/07/14 06:53:04;;;;;;;28.13;7.70;;;;;;;24.28;71.72;99711.70;125659;1096;22776;-63
2021/07/14 06:55:35;;;;;;;19.43;8.00;;;;;;;24.20;72.06;99731.75;125675;1094;22797;-62
2021/07/14 06:58:07;;;;;;;24.75;8.80;;;;;;;24.13;72.60;99746.11;125908;1095;25465;-62
2021/07/14 07:00:39;;;;;;;22.53;9.05;;;;;;;24.03;72.61;99757.37;125682;1097;26330;-63
2021/07/14 07:03:10;;;;;;;22.63;7.50;;;;;;;23.92;73.01;99769.24;125645;1096;22794;-62
2021/07/14 07:05:45;;;;;;;33.60;8.57;;;;;;;23.80;73.07;99765.36;125666;1097;22751;-63
2021/07/14 07:08:16;;;;;;;19.15;6.80;;;;;;;23.70;73.08;99773.05;125714;1095;22777;-62
2021/07/14 07:10:49;;;;;;;19.20;5.78;;;;;;;23.66;73.11;99752.75;125711;1095;22941;-63
2021/07/14 07:13:20;;;;;;;23.50;5.65;;;;;;;23.63;73.07;99726.17;125727;1096;22857;-64
2021/07/14 07:15:53;;;;;;;22.70;5.13;;;;;;;23.65;73.39;99719.91;125660;1095;22960;-63
2021/07/14 07:18:25;;;;;;;19.55;5.00;;;;;;;23.72;73.70;99736.94;125619;1095;22777;-63
2021/07/14 07:20:57;;;;;;;18.70;5.43;;;;;;;23.77;73.64;99750.20;126047;1096;25877;-63
2021/07/14 07:23:29;;;;;;;22.30;5.40;;;;;;;23.86;73.55;99738.13;125902;1095;24881;-65
2021/07/14 07:26:04;;;;;;;20.73;4.20;;;;;;;23.99;73.47;99757.02;125622;1096;22807;-63
2021/07/14 07:28:40;;;;;;;14.55;2.53;;;;;;;24.07;71.82;99752.03;125838;1096;22805;-62
2021/07/14 07:31:12;;;;;;;12.53;2.38;;;;;;;24.18;71.97;99739.38;125690;1095;22957;-62
2021/07/14 07:33:44;;;;;;;9.37;1.90;;;;;;;24.26;70.96;99728.64;125722;1095;27287;-63
2021/07/14 07:36:16;;;;;;;14.10;1.80;;;;;;;24.34;70.42;99727.22;125666;1095;27207;-62
2021/07/14 07:38:48;;;;;;;14.05;1.70;;;;;;;24.42;69.26;99724.27;125690;1096;22807;-62
2021/07/14 07:41:21;;;;;;;11.65;1.60;;;;;;;24.43;68.56;99720.86;125639;1095;27281;-62
2021/07/14 07:43:53;;;;;;;5.80;1.45;;;;;;;24.46;69.15;99722.52;125701;1093;22814;-63
2021/07/14 07:46:25;;;;;;;6.68;1.40;;;;;;;24.55;68.85;99718.99;125774;1094;22810;-63
2021/07/14 07:48:56;;;;;;;6.55;1.40;;;;;;;24.59;68.53;99725.03;125738;1096;22787;-62
2021/07/14 07:51:29;;;;;;;14.95;2.00;;;;;;;24.64;68.12;99724.00;125634;1096;27367;-62
2021/07/14 07:54:02;;;;;;;19.48;2.83;;;;;;;24.65;67.83;99733.33;125756;1094;24167;-63
2021/07/14 07:56:35;;;;;;;10.98;1.50;;;;;;;24.68;67.68;99729.30;125780;1093;22777;-63
2021/07/14 07:59:07;;;;;;;7.35;1.55;;;;;;;24.70;67.42;99740.89;125772;1097;27034;-63
2021/07/14 08:01:39;;;;;;;11.00;1.53;;;;;;;24.71;67.43;99750.95;125868;1097;22787;-63
2021/07/14 08:04:11;;;;;;;7.53;1.40;;;;;;;24.69;67.48;99768.67;125774;1096;22758;-63
2021/07/14 08:06:43;;;;;;;11.48;1.50;;;;;;;24.68;67.14;99760.70;125698;1097;22923;-63
2021/07/14 08:09:14;;;;;;;10.55;1.50;;;;;;;24.66;67.32;99772.72;125715;1097;22806;-63
2021/07/14 08:11:46;;;;;;;10.30;1.53;;;;;;;24.68;67.09;99769.27;125831;1095;22796;-63
2021/07/14 08:14:18;;;;;;;14.15;1.10;;;;;;;24.66;65.23;99766.25;125817;1094;22800;-63
2021/07/14 08:16:50;;;;;;;16.00;1.50;;;;;;;24.68;65.34;99766.41;126012;1096;22868;-63
2021/07/14 08:19:22;;;;;;;12.00;0.90;;;;;;;24.72;65.33;99770.36;125969;1097;27318;-62
2021/07/14 08:21:54;;;;;;;10.95;1.33;;;;;;;24.77;64.89;99768.59;125751;1097;22778;-64
2021/07/14 08:24:26;;;;;;;7.28;0.68;;;;;;;24.79;64.04;99775.23;126037;1095;22865;-63
2021/07/14 08:26:58;;;;;;;2.93;0.60;;;;;;;24.83;63.33;99780.51;125673;1097;22770;-63
2021/07/14 08:29:29;;;;;;;3.13;0.70;;;;;;;24.84;63.46;99799.92;126015;1097;22774;-63
2021/07/14 08:32:01;;;;;;;8.13;0.80;;;;;;;24.86;63.25;99791.53;125644;1095;22806;-64
2021/07/14 08:34:32;;;;;;;7.00;1.00;;;;;;;24.90;63.58;99776.81;125688;1096;22934;-63
2021/07/14 08:37:06;;;;;;;7.25;0.60;;;;;;;24.92;62.41;99793.35;125679;1093;27037;-62
2021/07/14 08:39:38;;;;;;;6.20;0.50;;;;;;;24.93;61.48;99792.78;126001;1096;22786;-63
2021/07/14 08:42:11;;;;;;;6.73;0.47;;;;;;;24.96;61.01;99805.10;125831;1092;23480;-62
2021/07/14 08:44:43;;;;;;;2.55;0.50;;;;;;;24.92;60.80;99804.77;125820;1096;26439;-63
2021/07/14 08:47:18;;;;;;;6.10;0.50;;;;;;;24.86;60.62;99814.37;125860;1095;22777;-62
2021/07/14 08:49:52;;;;;;;3.40;0.47;;;;;;;24.79;60.06;99812.34;125750;1094;22776;-62
2021/07/14 08:52:24;;;;;;;5.25;0.40;;;;;;;24.75;59.88;99814.88;125851;1097;23367;-63
2021/07/14 08:54:56;;;;;;;2.13;0.38;;;;;;;24.72;60.31;99815.27;125828;1097;22902;-63
2021/07/14 08:57:29;;;;;;;3.20;0.40;;;;;;;24.71;59.94;99817.36;125830;1097;22726;-63
2021/07/14 09:00:02;;;;;;;2.50;0.50;;;;;;;24.71;59.66;99843.05;125784;1094;25900;-63
2021/07/14 09:02:35;;;;;;;3.85;0.40;;;;;;;24.72;59.85;99853.14;125997;1094;23601;-63
2021/07/14 09:05:09;;;;;;;7.00;0.60;;;;;;;24.72;59.80;99870.27;125772;1097;22774;-62
2021/07/14 09:07:41;;;;;;;4.58;0.55;;;;;;;24.76;60.31;99878.44;125740;1097;22756;-63
2021/07/14 09:10:17;;;;;;;4.05;0.40;;;;;;;24.79;60.02;99863.73;125820;1096;22775;-63
2021/07/14 09:12:50;;;;;;;6.23;0.60;;;;;;;24.75;59.71;99883.38;125708;1095;22780;-63
2021/07/14 09:15:26;;;;;;;3.83;0.60;;;;;;;24.71;59.90;99890.81;125941;1093;22832;-63
2021/07/14 09:18:01;;;;;;;5.98;0.73;;;;;;;24.67;60.06;99890.48;125855;1095;23005;-63
2021/07/14 09:20:36;;;;;;;3.00;0.35;;;;;;;24.61;59.91;99873.61;125887;1093;22934;-63
2021/07/14 09:23:10;;;;;;;6.75;0.40;;;;;;;24.53;59.99;99878.64;125922;1093;22886;-62
2021/07/14 09:25:44;;;;;;;3.00;0.40;;;;;;;24.46;60.57;99890.87;125749;1095;22851;-62
2021/07/14 09:28:18;;;;;;;2.78;0.43;;;;;;;24.37;60.53;99874.42;125875;1096;27124;-62
2021/07/14 09:31:03;;;;;;;3.33;0.40;;;;;;;24.29;60.67;99867.27;125729;1093;26739;-63
2021/07/14 09:33:39;;;;;;;3.08;0.48;;;;;;;24.24;60.47;99859.69;125491;1096;23653;-63
2021/07/14 09:36:11;;;;;;;2.03;0.50;;;;;;;24.24;60.67;99849.05;125686;1096;22780;-62
2021/07/14 09:38:44;;;;;;;5.58;0.90;;;;;;;24.28;61.13;99877.91;125742;1096;24457;-63
2021/07/14 09:41:17;;;;;;;7.50;0.80;;;;;;;24.29;60.57;99899.41;125676;1096;22780;-63
2021/07/14 09:43:49;;;;;;;4.33;0.43;;;;;;;24.28;60.96;99948.47;125770;1096;22785;-63
2021/07/14 09:46:21;;;;;;;4.50;0.50;;;;;;;24.27;60.98;99996.20;125949;1095;26859;-64
2021/07/14 09:48:54;;;;;;;3.75;0.50;;;;;;;24.21;60.94;99995.67;125735;1096;22778;-64
2021/07/14 09:51:26;;;;;;;5.08;0.68;;;;;;;24.12;61.02;99955.63;125717;1093;22783;-63
2021/07/14 09:54:01;;;;;;;6.08;0.63;;;;;;;24.06;60.89;99987.96;125672;1097;22870;-63
2021/07/14 09:56:36;;;;;;;3.68;0.60;;;;;;;24.00;61.44;99978.11;125790;1095;25265;-63
2021/07/14 09:59:09;;;;;;;6.60;0.55;;;;;;;23.99;61.42;99963.09;125821;1094;22795;-63
2021/07/14 10:01:45;;;;;;;8.35;0.80;;;;;;;23.97;61.95;99962.15;125782;1096;22792;-63
2021/07/14 10:04:54;;;;;;;6.45;0.68;;;;;;;23.94;62.85;99984.02;127971;1093;81744;-79
2021/07/14 10:07:30;;;;;;;8.98;0.50;;;;;;;23.87;62.65;99989.77;126813;1093;22781;-78
2021/07/14 10:10:13;;;;;;;6.10;0.60;;;;;;;23.67;62.66;99991.55;126682;1092;23616;-79
2021/07/14 10:12:46;;;;;;;9.83;1.65;;;;;;;23.56;63.35;99957.04;126834;1092;22767;-79
2021/07/14 10:15:26;;;;;;;2.78;0.50;;;;;;;23.48;63.27;99954.23;126733;1092;22767;-79
2021/07/14 10:17:56;;;;;;;;;;;;;;;23.45;63.39;99968.85;126783;1093;22771;-78
2021/07/14 10:20:34;;;;;;;6.15;0.60;;;;;;;23.45;63.10;99968.85;127017;1091;90563;-61
2021/07/14 10:23:09;;;;;;;6.90;0.50;;;;;;;23.45;63.27;99943.21;125704;1093;26313;-63
2021/07/14 10:25:42;;;;;;;2.48;0.70;;;;;;;23.42;63.04;99958.63;125765;1092;27741;-62
2021/07/14 10:28:19;;;;;;;6.38;0.40;;;;;;;23.35;63.24;99948.77;125736;1093;22776;-62
2021/07/14 10:30:54;;;;;;;5.57;0.50;;;;;;;23.32;63.47;99958.45;125690;1093;22921;-62
2021/07/14 10:33:27;;;;;;;3.75;0.50;;;;;;;23.30;63.68;99967.55;125764;1092;22760;-62
2021/07/14 10:36:02;;;;;;;3.40;0.60;;;;;;;23.40;63.99;99967.75;125752;1093;22791;-62
2021/07/14 10:38:35;;;;;;;3.68;0.50;;;;;;;23.55;64.35;99970.52;125855;1093;27123;-62
2021/07/14 10:41:08;;;;;;;6.93;0.50;;;;;;;23.69;64.75;99966.09;125725;1093;23497;-63
2021/07/14 10:43:44;;;;;;;7.20;0.70;;;;;;;23.87;64.64;99949.86;125766;1093;22778;-63
2021/07/14 10:46:18;;;;;;;3.05;0.60;;;;;;;24.01;64.57;99929.05;125685;1093;27875;-63
2021/07/14 10:48:51;;;;;;;5.15;0.85;;;;;;;24.20;64.20;99910.69;125677;1093;22803;-62
2021/07/14 10:51:26;;;;;;;6.05;0.80;;;;;;;24.32;63.98;99898.23;125808;1093;22770;-63
2021/07/14 10:54:02;;;;;;;8.00;1.20;;;;;;;24.39;63.47;99876.68;125772;1092;22808;-63
2021/07/14 10:56:36;;;;;;;9.23;0.73;;;;;;;24.47;63.21;99868.80;125847;1093;22770;-63
2021/07/14 10:59:10;;;;;;;8.65;1.13;;;;;;;24.54;63.09;99851.59;125721;1093;25854;-62
2021/07/14 11:01:44;;;;;;;4.95;0.70;;;;;;;24.64;62.89;99840.29;125721;1093;24587;-62
2021/07/14 11:04:30;;;;;;;5.18;0.70;;;;;;;24.75;62.12;99846.27;125686;1093;22796;-63
2021/07/14 11:07:05;;;;;;;8.87;1.00;;;;;;;24.83;62.34;99849.80;125684;1093;27115;-63
2021/07/14 11:09:39;;;;;;;6.80;0.70;;;;;;;24.93;62.17;99834.85;125703;1092;22788;-62
2021/07/14 11:12:15;;;;;;;5.63;0.80;;;;;;;25.02;62.17;99829.20;125656;1092;22797;-63
2021/07/14 11:14:51;;;;;;;6.53;0.80;;;;;;;25.10;62.16;99829.86;125744;1092;22810;-62
2021/07/14 11:17:31;;;;;;;10.00;0.90;;;;;;;25.20;61.39;99799.25;125892;1093;22779;-63
2021/07/14 11:20:12;;;;;;;5.18;0.68;;;;;;;25.27;60.40;99795.55;125754;1093;22767;-63
2021/07/14 11:22:45;;;;;;;10.00;0.73;;;;;;;25.26;60.64;99779.01;125761;1093;22855;-63
2021/07/14 11:25:27;;;;;;;4.87;0.87;;;;;;;25.29;60.32;99778.57;125692;1093;22751;-63
2021/07/14 11:28:00;;;;;;;5.28;0.70;;;;;;;25.34;60.16;99773.94;125818;1093;22928;-62
2021/07/14 11:30:41;;;;;;;4.33;0.80;;;;;;;25.39;59.92;99795.75;125795;1093;22841;-63
2021/07/14 11:33:24;;;;;;;5.93;0.68;;;;;;;25.47;59.74;99793.59;125742;1093;22800;-63
2021/07/14 11:36:11;;;;;;;4.05;0.58;;;;;;;25.47;59.80;99802.17;125777;1093;26572;-63
2021/07/14 11:38:48;;;;;;;6.45;1.00;;;;;;;25.55;60.55;99831.39;125709;1093;22774;-63
2021/07/14 11:41:26;;;;;;;2.68;0.63;;;;;;;25.66;59.89;99836.55;126146;1093;23386;-63
2021/07/14 11:44:01;;;;;;;5.03;0.80;;;;;;;25.73;60.34;99841.41;125748;1093;26130;-63
2021/07/14 11:46:37;;;;;;;5.58;0.80;;;;;;;25.77;60.60;99843.83;125771;1093;22773;-63
2021/07/14 11:49:10;;;;;;;6.55;1.45;;;;;;;25.80;60.64;99846.27;125722;1093;22797;-64
2021/07/14 11:51:43;;;;;;;4.05;0.80;;;;;;;25.93;60.39;99848.72;125760;1093;25823;-63